LFOH/LEH METAR and TAF weather

Enter ICAO airport designator
Station Type Date Time Source
LFOH METAR 2021/07/29 02:30 UTC NOAA

LFOH 290230Z AUTO 24015KT 9999 BKN016 BKN022 OVC072 15/12 Q1013


Station Type Date Time Source
LFOH Decoded METAR 2021/07/29 02:30 UTC NOAA

La Heve, France (LFOH) 49-31N 000-04E 103M
Jul 28, 2021 - 10:30 PM EDT / 2021.07.29 0230 UTC
Wind: from the WSW (240 degrees) at 17 MPH (15 KT):0
Visibility: greater than 7 mile(s):0
Sky conditions: overcast
Temperature: 59 F (15 C)
Dew Point: 53 F (12 C)
Relative Humidity: 82%
Pressure (altimeter): 29.91 in. Hg (1013 hPa)
ob: LFOH 290230Z AUTO 24015KT 9999 BKN016 BKN022 OVC072 15/12 Q1013
cycle: 2

Station Type Date Time Source
LFOH TAF 2021/07/28 18:17 UTC NOAA

TAF LFOH 281811Z 2818/2912 CNL

Example: see airport list